Terminal Aerodrome Forecast
Issued by NWS

Home | Current Version | Previous Version | Text Only | Print | Product List | Glossary On
Versions: 1 2 3 4 5 6 7 8 9 10 11 12 13 14 15 16 17
228
FTUS42 KTAE 190142 AAA
TAFECP
TAF AMD
KECP 190142Z 1902/1924 00000KT 3SM BR SCT003
      TEMPO 1902/1905 1/2SM FG BKN003
     FM190500 00000KT 1/4SM FG OVC002
     FM191600 18008KT P6SM BKN040=

USA.gov is the U.S. government's official web portal to all federal, state and local government web resources and services.